Time;durP1;ratioP1;P1;durP2;ratioP2;P2;SDS_P1;SDS_P2;PMS_P1;PMS_P2;Temp;Humidity;BMP_temperature;BMP_pressure;BME280_temperature;BME280_humidity;BME280_pressure;Samples;Min_cycle;Max_cycle;Signal;HPM_P1;HPM_P2
2022/04/07 00:01:19;;;;;;;13.80;4.22;;;9.50;99.90;;;;;;5105119;27;20076;-77
2022/04/07 00:03:45;;;;;;;13.82;4.13;;;9.50;99.90;;;;;;5099365;28;20104;-75
2022/04/07 00:06:10;;;;;;;16.13;2.95;;;9.40;99.90;;;;;;5102410;28;20040;-75
2022/04/07 00:08:37;;;;;;;12.70;2.92;;;9.40;99.90;;;;;;5099011;27;20059;-75
2022/04/07 00:11:02;;;;;;;11.68;2.78;;;9.40;99.90;;;;;;5105351;28;20043;-75
2022/04/07 00:13:28;;;;;;;10.85;2.60;;;9.40;99.90;;;;;;5094256;28;20090;-75
2022/04/07 00:15:56;;;;;;;11.88;3.40;;;9.30;99.90;;;;;;5101886;28;20039;-75
2022/04/07 00:18:21;;;;;;;16.15;3.10;;;9.30;99.90;;;;;;5101063;28;20047;-75
2022/04/07 00:20:47;;;;;;;13.68;3.83;;;9.30;99.90;;;;;;5102180;27;20397;-75
2022/04/07 00:23:13;;;;;;;9.18;2.75;;;9.30;99.90;;;;;;5108379;28;20130;-74
2022/04/07 00:25:38;;;;;;;13.75;3.10;;;9.30;99.90;;;;;;5104299;27;20143;-75
2022/04/07 00:28:04;;;;;;;27.98;4.72;;;9.40;99.90;;;;;;5099459;27;20043;-76
2022/04/07 00:30:30;;;;;;;10.75;3.22;;;9.30;99.90;;;;;;5111884;27;20176;-75
2022/04/07 00:32:55;;;;;;;12.32;2.50;;;9.40;99.90;;;;;;5106613;27;20393;-76
2022/04/07 00:35:24;;;;;;;13.10;3.92;;;9.40;99.90;;;;;;5103519;27;20035;-75
2022/04/07 00:37:50;;;;;;;17.45;4.07;;;9.40;99.90;;;;;;5104960;28;20043;-76
2022/04/07 00:40:17;;;;;;;22.02;4.90;;;9.40;99.90;;;;;;5091867;28;20040;-75
2022/04/07 00:42:52;;;;;;;22.15;3.78;;;9.30;99.90;;;;;;5107013;27;20039;-75
2022/04/07 00:45:20;;;;;;;14.43;2.55;;;9.40;99.90;;;;;;5109649;28;20040;-75
2022/04/07 00:47:47;;;;;;;16.83;4.60;;;9.30;99.90;;;;;;5102239;28;20447;-75
2022/04/07 00:50:14;;;;;;;14.50;4.05;;;9.30;99.90;;;;;;5099370;27;20409;-76
2022/04/07 00:52:44;;;;;;;17.30;3.70;;;9.40;99.90;;;;;;5110281;27;20389;-75
2022/04/07 00:55:10;;;;;;;;;;;9.40;99.90;;;;;;5100261;28;20042;-76
2022/04/07 00:57:38;;;;;;;19.35;4.40;;;9.30;99.90;;;;;;5100791;28;19935;-75
2022/04/07 01:00:06;;;;;;;29.88;5.20;;;9.40;99.90;;;;;;5101750;28;20405;-75
2022/04/07 01:02:32;;;;;;;16.83;3.97;;;9.30;99.90;;;;;;5101554;28;20051;-75
2022/04/07 01:04:57;;;;;;;28.73;5.95;;;9.40;99.90;;;;;;5101609;28;20051;-75
2022/04/07 01:07:25;;;;;;;24.50;5.57;;;9.40;99.90;;;;;;5109280;28;20035;-75
2022/04/07 01:09:51;;;;;;;25.40;5.75;;;9.30;99.90;;;;;;5096592;28;20048;-76
2022/04/07 01:12:17;;;;;;;26.48;4.43;;;9.30;99.90;;;;;;5102793;28;20073;-76
2022/04/07 01:14:57;;;;;;;22.70;4.95;;;9.30;99.90;;;;;;5106918;27;20063;-75
2022/04/07 01:17:22;;;;;;;20.35;4.20;;;9.30;99.90;;;;;;5100712;28;20042;-75
2022/04/07 01:19:48;;;;;;;21.50;4.22;;;9.20;99.90;;;;;;5107011;28;20039;-75
2022/04/07 01:22:14;;;;;;;21.75;4.90;;;9.20;99.90;;;;;;5102799;28;20432;-75
2022/04/07 01:24:40;;;;;;;18.02;5.95;;;9.20;99.90;;;;;;5099073;28;20062;-76
2022/04/07 01:27:05;;;;;;;21.98;4.28;;;9.20;99.90;;;;;;5105817;28;20464;-75
2022/04/07 01:29:31;;;;;;;25.92;4.20;;;9.20;99.90;;;;;;5102567;27;20039;-75
2022/04/07 01:32:00;;;;;;;30.83;6.40;;;9.20;99.90;;;;;;5096117;28;20516;-75
2022/04/07 01:34:26;;;;;;;19.17;3.80;;;9.30;99.90;;;;;;5102512;28;20051;-75
2022/04/07 01:36:53;;;;;;;29.00;5.95;;;9.30;99.90;;;;;;5099534;28;20040;-75
2022/04/07 01:39:25;;;;;;;21.33;4.18;;;9.30;99.90;;;;;;5105804;28;20040;-75
2022/04/07 01:41:51;;;;;;;19.55;3.63;;;9.30;99.90;;;;;;5096791;28;20051;-75
2022/04/07 01:44:18;;;;;;;21.80;5.13;;;9.30;99.90;;;;;;5102039;28;20343;-75
2022/04/07 01:46:44;;;;;;;33.33;5.72;;;9.30;99.90;;;;;;5101051;28;20052;-76
2022/04/07 01:49:10;;;;;;;15.57;3.38;;;9.30;99.90;;;;;;5099826;28;20135;-75
2022/04/07 01:51:37;;;;;;;19.42;6.15;;;9.20;99.90;;;;;;5100047;28;20394;-75
2022/04/07 01:54:03;;;;;;;21.27;6.10;;;9.30;99.90;;;;;;5108565;28;20043;-75
2022/04/07 01:56:30;;;;;;;28.95;6.60;;;9.20;99.90;;;;;;5105471;28;20042;-74
2022/04/07 01:58:56;;;;;;;26.17;5.97;;;9.20;99.90;;;;;;5096639;27;20035;-75
2022/04/07 02:01:22;;;;;;;25.38;6.10;;;9.20;99.90;;;;;;5098668;28;20041;-76
2022/04/07 02:03:48;;;;;;;20.73;3.95;;;9.20;99.90;;;;;;5098783;28;20039;-75
2022/04/07 02:06:15;;;;;;;27.45;6.57;;;9.20;99.90;;;;;;5103376;28;20097;-75
2022/04/07 02:08:41;;;;;;;22.17;4.85;;;9.10;99.90;;;;;;5097166;28;20079;-75
2022/04/07 02:11:08;;;;;;;30.45;5.18;;;9.10;99.90;;;;;;5100387;28;20497;-75
2022/04/07 02:13:33;;;;;;;28.15;4.75;;;9.20;99.90;;;;;;5102028;28;20047;-75
2022/04/07 02:16:01;;;;;;;19.48;5.15;;;9.20;99.90;;;;;;5107189;28;20062;-76
2022/04/07 02:18:27;;;;;;;21.17;4.20;;;9.20;99.90;;;;;;5100942;28;20040;-76
2022/04/07 02:20:52;;;;;;;24.05;4.75;;;9.20;99.90;;;;;;5103259;27;20046;-75
2022/04/07 02:23:18;;;;;;;30.80;7.03;;;9.30;99.90;;;;;;5104726;28;20035;-75
2022/04/07 02:25:44;;;;;;;19.73;6.18;;;9.20;99.90;;;;;;5101083;28;20056;-75
2022/04/07 02:28:09;;;;;;;26.70;4.22;;;9.20;99.90;;;;;;5095461;28;20028;-75
2022/04/07 02:30:35;;;;;;;21.38;4.28;;;9.30;99.90;;;;;;5107004;28;20036;-76
2022/04/07 02:33:01;;;;;;;25.85;4.82;;;9.30;99.90;;;;;;5106530;28;20031;-75
2022/04/07 02:35:26;;;;;;;19.02;4.10;;;9.30;99.90;;;;;;5109131;28;20047;-75
2022/04/07 02:37:52;;;;;;;20.48;5.95;;;9.20;99.90;;;;;;5107649;28;20054;-75
2022/04/07 02:40:17;;;;;;;27.38;5.15;;;9.20;99.90;;;;;;5108781;28;20402;-75
2022/04/07 02:42:43;;;;;;;26.85;4.70;;;9.20;99.90;;;;;;5105410;28;20035;-75
2022/04/07 02:45:09;;;;;;;18.95;4.18;;;9.20;99.90;;;;;;5107025;28;20061;-75
2022/04/07 02:47:38;;;;;;;17.35;3.40;;;9.20;99.90;;;;;;5116908;27;20177;-75
2022/04/07 02:50:04;;;;;;;27.50;4.18;;;9.20;99.90;;;;;;5112959;27;20545;-75
2022/04/07 02:52:30;;;;;;;36.72;5.85;;;9.20;99.90;;;;;;5101370;28;20044;-76
2022/04/07 02:54:55;;;;;;;39.67;4.90;;;9.20;99.90;;;;;;5108438;28;20118;-75
2022/04/07 02:57:23;;;;;;;14.90;3.63;;;9.20;99.90;;;;;;5118423;28;20031;-75
2022/04/07 02:59:48;;;;;;;17.02;3.53;;;9.20;99.90;;;;;;5104875;27;20366;-75
2022/04/07 03:02:14;;;;;;;22.75;5.82;;;9.20;99.90;;;;;;5102024;28;20031;-75
2022/04/07 03:04:39;;;;;;;19.63;4.20;;;9.20;99.90;;;;;;5099611;28;20140;-75
2022/04/07 03:07:05;;;;;;;20.85;4.88;;;9.30;99.90;;;;;;5101976;28;20546;-75
2022/04/07 03:09:31;;;;;;;20.92;3.65;;;9.20;99.90;;;;;;5103606;28;20051;-75
2022/04/07 03:11:56;;;;;;;20.95;3.47;;;9.30;99.90;;;;;;5102062;28;20034;-75
2022/04/07 03:14:22;;;;;;;27.02;6.13;;;9.30;99.90;;;;;;5100700;28;20503;-76
2022/04/07 03:16:48;;;;;;;16.23;3.97;;;9.30;99.90;;;;;;5109571;28;20035;-75
2022/04/07 03:19:17;;;;;;;20.65;3.72;;;9.30;99.90;;;;;;5111331;27;20039;-75
2022/04/07 03:21:43;;;;;;;24.83;5.88;;;9.30;99.90;;;;;;5101822;27;20040;-75
2022/04/07 03:24:10;;;;;;;21.45;6.35;;;9.30;99.90;;;;;;5097955;27;20044;-76
2022/04/07 03:26:35;;;;;;;33.40;6.43;;;9.40;99.90;;;;;;5100562;28;20490;-76
2022/04/07 03:29:01;;;;;;;39.38;7.47;;;9.30;99.90;;;;;;5110415;27;20051;-75
2022/04/07 03:31:27;;;;;;;25.73;5.00;;;9.30;99.90;;;;;;5104599;28;20054;-75
2022/04/07 03:33:52;;;;;;;28.02;6.25;;;9.30;99.90;;;;;;5103100;27;20504;-75
2022/04/07 03:36:18;;;;;;;20.17;4.97;;;9.30;99.90;;;;;;5105562;28;20043;-74
2022/04/07 03:38:43;;;;;;;37.70;7.43;;;9.30;99.90;;;;;;5100223;28;20040;-77
2022/04/07 03:41:09;;;;;;;28.52;6.18;;;9.30;99.90;;;;;;5104409;28;20401;-76
2022/04/07 03:43:35;;;;;;;15.60;5.82;;;9.20;99.90;;;;;;5100658;28;20043;-75
2022/04/07 03:46:00;;;;;;;22.38;4.03;;;9.30;99.90;;;;;;5101517;27;20036;-75
2022/04/07 03:48:26;;;;;;;24.40;5.60;;;9.30;99.90;;;;;;5104356;27;20771;-75
2022/04/07 03:50:52;;;;;;;31.98;5.75;;;9.30;99.90;;;;;;5101078;28;20039;-75
2022/04/07 03:53:17;;;;;;;19.70;3.70;;;9.30;99.90;;;;;;5100019;27;20042;-75
2022/04/07 03:55:43;;;;;;;25.08;5.15;;;9.30;99.90;;;;;;5101417;28;20076;-75
2022/04/07 03:58:08;;;;;;;31.58;5.32;;;9.30;99.90;;;;;;5105248;28;20566;-75
2022/04/07 04:00:34;;;;;;;26.38;5.30;;;9.20;99.90;;;;;;5107082;28;20032;-75
2022/04/07 04:03:00;;;;;;;32.38;5.97;;;9.20;99.90;;;;;;5102062;27;20040;-75
2022/04/07 04:05:25;;;;;;;29.10;4.88;;;9.20;99.90;;;;;;5102569;27;20039;-75
2022/04/07 04:07:51;;;;;;;25.13;5.57;;;9.20;99.90;;;;;;5118150;27;20075;-75
2022/04/07 04:10:17;;;;;;;25.02;5.10;;;9.20;99.90;;;;;;5109393;28;20035;-75
2022/04/07 04:12:43;;;;;;;27.35;4.95;;;9.10;99.90;;;;;;5102885;28;20104;-74
2022/04/07 04:15:09;;;;;;;38.88;7.55;;;9.10;99.90;;;;;;5102346;28;20035;-75
2022/04/07 04:17:34;;;;;;;25.02;6.28;;;9.10;99.90;;;;;;5103818;27;20048;-75
2022/04/07 04:20:01;;;;;;;37.25;7.40;;;9.10;99.90;;;;;;5109199;28;20042;-74
2022/04/07 04:22:27;;;;;;;28.27;6.70;;;9.10;99.90;;;;;;5102166;28;20047;-75
2022/04/07 04:24:52;;;;;;;30.48;6.65;;;9.10;99.90;;;;;;5102490;27;20108;-74
2022/04/07 04:27:19;;;;;;;34.55;8.30;;;9.10;99.90;;;;;;5099633;27;20046;-74
2022/04/07 04:29:44;;;;;;;27.55;7.20;;;9.10;99.90;;;;;;5106461;28;20048;-74
2022/04/07 04:32:10;;;;;;;30.85;7.78;;;9.00;99.90;;;;;;5101955;27;20071;-74
2022/04/07 04:34:36;;;;;;;40.28;7.45;;;9.10;99.90;;;;;;5108730;27;20055;-74
2022/04/07 04:37:02;;;;;;;34.55;6.35;;;9.10;99.90;;;;;;5102711;28;20572;-74
2022/04/07 04:39:27;;;;;;;40.80;9.45;;;9.10;99.90;;;;;;5102043;28;20050;-74
2022/04/07 04:41:53;;;;;;;41.50;9.80;;;9.10;99.90;;;;;;5097617;28;20039;-74
2022/04/07 04:44:18;;;;;;;46.60;11.48;;;9.10;99.90;;;;;;5095951;28;20071;-74
2022/04/07 04:46:44;;;;;;;43.25;8.35;;;9.00;99.90;;;;;;5104780;28;20043;-74
2022/04/07 04:49:09;;;;;;;38.78;8.35;;;9.10;99.90;;;;;;5110411;28;20047;-74
2022/04/07 04:51:35;;;;;;;51.03;10.02;;;9.00;99.90;;;;;;5107714;28;20028;-74
2022/04/07 04:54:01;;;;;;;47.90;7.03;;;9.00;99.90;;;;;;5089152;28;20135;-73
2022/04/07 04:56:27;;;;;;;38.03;8.07;;;9.10;99.90;;;;;;5099858;28;20396;-74
2022/04/07 04:58:57;;;;;;;36.40;9.38;;;9.00;99.90;;;;;;5111219;27;20076;-74
2022/04/07 05:01:23;;;;;;;26.42;5.60;;;9.00;99.90;;;;;;5096226;27;20088;-74
2022/04/07 05:03:49;;;;;;;33.13;5.50;;;9.00;99.90;;;;;;5098634;28;20164;-74
2022/04/07 05:06:15;;;;;;;22.27;3.15;;;8.80;99.90;;;;;;5103833;28;20498;-74
2022/04/07 05:08:41;;;;;;;13.85;3.90;;;8.40;99.90;;;;;;5101025;28;20473;-74
2022/04/07 05:11:06;;;;;;;9.95;1.83;;;8.10;99.90;;;;;;5100700;28;20497;-73
2022/04/07 05:13:32;;;;;;;14.38;2.47;;;7.80;99.90;;;;;;5102285;28;20456;-74
2022/04/07 05:15:58;;;;;;;7.60;1.17;;;7.60;99.90;;;;;;5102770;28;20031;-74
2022/04/07 05:18:23;;;;;;;8.80;2.10;;;7.40;99.90;;;;;;5098906;28;20122;-74
2022/04/07 05:20:49;;;;;;;9.27;2.78;;;7.20;99.90;;;;;;5092572;28;20151;-74
2022/04/07 05:23:14;;;;;;;9.30;3.08;;;7.10;99.90;;;;;;5101810;28;20600;-74
2022/04/07 05:25:45;;;;;;;9.80;2.22;;;7.20;99.90;;;;;;5099170;28;20062;-74
2022/04/07 05:28:10;;;;;;;25.83;4.75;;;7.10;99.90;;;;;;5101653;28;20180;-74
2022/04/07 05:30:36;;;;;;;4.60;1.48;;;7.10;99.90;;;;;;5099275;28;20130;-74
2022/04/07 05:33:01;;;;;;;8.27;2.17;;;7.00;99.90;;;;;;5105054;27;20069;-74
2022/04/07 05:35:28;;;;;;;10.23;1.30;;;7.00;99.90;;;;;;5102597;28;20044;-74
2022/04/07 05:37:59;;;;;;;5.50;1.25;;;6.90;99.90;;;;;;5096959;28;20031;-73
2022/04/07 05:40:24;;;;;;;;;;;6.80;99.90;;;;;;5103744;28;20123;-74
2022/04/07 05:42:50;;;;;;;12.25;2.72;;;6.50;99.90;;;;;;5105592;28;20018;-74
2022/04/07 05:45:15;;;;;;;11.43;1.98;;;6.60;99.90;;;;;;5109494;28;20621;-74
2022/04/07 05:47:41;;;;;;;9.68;2.42;;;6.60;99.90;;;;;;5102079;28;20093;-74
2022/04/07 05:50:08;;;;;;;9.07;1.20;;;6.50;99.90;;;;;;5097486;28;20052;-73
2022/04/07 05:52:33;;;;;;;10.98;1.60;;;6.40;99.90;;;;;;5098772;28;20050;-73
2022/04/07 05:54:59;;;;;;;15.52;2.28;;;6.40;99.90;;;;;;5105688;28;20408;-73
2022/04/07 05:57:30;;;;;;;7.45;2.03;;;6.30;99.90;;;;;;5107526;28;20184;-73
2022/04/07 06:00:04;;;;;;;6.75;1.48;;;6.30;99.90;;;;;;5104885;27;20035;-72
2022/04/07 06:02:29;;;;;;;8.57;1.48;;;6.30;99.90;;;;;;5104525;27;20035;-74
2022/04/07 06:04:55;;;;;;;14.82;2.50;;;6.30;99.90;;;;;;5101284;28;20036;-74
2022/04/07 06:07:21;;;;;;;7.90;1.33;;;6.30;99.90;;;;;;5104008;28;20031;-74
2022/04/07 06:09:47;;;;;;;4.70;1.15;;;6.30;99.90;;;;;;5107523;28;20116;-74
2022/04/07 06:12:12;;;;;;;6.63;1.10;;;6.30;99.90;;;;;;5106005;28;20127;-75
2022/04/07 06:14:38;;;;;;;5.25;1.98;;;6.20;99.90;;;;;;5109572;28;20071;-74
2022/04/07 06:17:04;;;;;;;10.30;1.80;;;6.30;99.90;;;;;;5108805;28;20088;-75
2022/04/07 06:19:29;;;;;;;6.18;1.52;;;6.30;99.90;;;;;;5103990;28;20044;-74
2022/04/07 06:21:55;;;;;;;3.78;1.63;;;6.20;99.90;;;;;;5098657;28;20048;-74
2022/04/07 06:24:21;;;;;;;4.07;1.50;;;6.30;99.90;;;;;;5087091;28;20572;-75
2022/04/07 06:26:49;;;;;;;6.40;1.80;;;6.20;99.90;;;;;;5097377;28;20523;-75
2022/04/07 06:29:14;;;;;;;4.35;1.08;;;6.20;99.90;;;;;;5071060;28;20052;-75
2022/04/07 06:31:40;;;;;;;10.98;1.05;;;6.30;99.90;;;;;;5096440;28;20053;-73
2022/04/07 06:34:06;;;;;;;5.18;1.60;;;6.30;99.90;;;;;;5098042;27;20478;-75
2022/04/07 06:36:31;;;;;;;7.15;0.77;;;6.30;99.90;;;;;;5094942;28;20192;-75
2022/04/07 06:38:57;;;;;;;7.93;1.35;;;6.30;99.90;;;;;;5104387;28;20334;-75
2022/04/07 06:41:22;;;;;;;5.82;1.63;;;6.30;99.90;;;;;;5111787;28;20110;-75
2022/04/07 06:43:48;;;;;;;10.30;1.90;;;6.40;99.90;;;;;;5089117;28;20044;-75
2022/04/07 06:46:13;;;;;;;4.43;1.48;;;6.50;99.90;;;;;;5112579;28;20118;-75
2022/04/07 06:48:39;;;;;;;13.43;2.42;;;6.50;99.90;;;;;;5110533;27;20071;-76
2022/04/07 06:51:04;;;;;;;7.32;1.00;;;6.50;99.90;;;;;;5104442;27;20032;-75
2022/04/07 06:53:30;;;;;;;9.25;1.13;;;6.50;99.90;;;;;;5112042;28;20040;-76
2022/04/07 06:55:56;;;;;;;3.85;1.08;;;6.60;99.90;;;;;;5112407;28;20100;-76
2022/04/07 06:58:21;;;;;;;11.05;1.15;;;6.60;99.90;;;;;;5109981;27;20431;-76
2022/04/07 07:00:47;;;;;;;5.28;1.13;;;6.50;99.90;;;;;;5099620;28;20177;-75
2022/04/07 07:03:15;;;;;;;4.20;0.70;;;6.60;99.90;;;;;;5103203;27;20105;-76
2022/04/07 07:05:41;;;;;;;2.90;0.95;;;6.50;99.90;;;;;;5098462;28;20131;-76
2022/04/07 07:08:14;;;;;;;6.25;1.23;;;6.50;99.90;;;;;;5088395;28;20040;-76
2022/04/07 07:10:40;;;;;;;6.53;1.15;;;6.60;99.90;;;;;;5096273;28;20402;-74
2022/04/07 07:13:06;;;;;;;6.30;1.80;;;6.50;99.90;;;;;;5109638;28;20042;-76
2022/04/07 07:15:31;;;;;;;5.80;1.50;;;6.50;99.90;;;;;;5113654;27;20080;-76
2022/04/07 07:17:57;;;;;;;11.85;1.80;;;6.60;99.90;;;;;;5107820;27;20398;-74
2022/04/07 07:20:23;;;;;;;7.55;0.93;;;6.60;99.90;;;;;;5093885;28;20043;-74
2022/04/07 07:22:48;;;;;;;6.65;1.63;;;6.60;99.90;;;;;;5099454;28;20088;-76
2022/04/07 07:25:14;;;;;;;3.60;0.90;;;6.60;99.90;;;;;;5117895;27;20055;-76
2022/04/07 07:27:43;;;;;;;7.72;1.40;;;6.60;99.90;;;;;;5104993;28;20040;-75
2022/04/07 07:30:10;;;;;;;7.18;2.25;;;6.70;99.90;;;;;;5112235;28;20123;-74
2022/04/07 07:32:40;;;;;;;5.32;1.63;;;6.70;99.90;;;;;;5111728;28;20096;-74
2022/04/07 07:35:08;;;;;;;4.95;1.33;;;6.60;99.90;;;;;;5112513;28;20044;-74
2022/04/07 07:37:33;;;;;;;6.00;1.67;;;6.60;99.90;;;;;;5105274;28;20044;-80
2022/04/07 07:40:11;;;;;;;8.45;2.28;;;6.60;99.90;;;;;;5112469;28;20100;-76
2022/04/07 07:42:36;;;;;;;7.10;1.35;;;6.70;99.90;;;;;;5103697;28;20036;-80
2022/04/07 07:45:03;;;;;;;17.90;3.40;;;6.70;99.90;;;;;;5111310;28;20043;-78
2022/04/07 07:47:29;;;;;;;4.15;0.90;;;6.70;99.90;;;;;;5107696;27;20058;-78
2022/04/07 07:49:54;;;;;;;5.20;1.17;;;6.70;99.90;;;;;;5112710;28;20040;-78
2022/04/07 07:52:20;;;;;;;8.68;1.25;;;6.80;99.90;;;;;;5092047;28;20138;-76
2022/04/07 07:54:46;;;;;;;10.10;1.17;;;7.20;99.90;;;;;;5098341;28;20055;-76
2022/04/07 07:57:11;;;;;;;8.02;2.10;;;7.40;99.90;;;;;;5098735;27;20035;-76
2022/04/07 07:59:37;;;;;;;14.23;2.08;;;7.40;99.90;;;;;;5110008;27;20040;-76
2022/04/07 08:02:03;;;;;;;4.10;0.95;;;7.30;99.90;;;;;;5091194;28;20047;-78
2022/04/07 08:04:28;;;;;;;6.93;1.52;;;7.40;99.90;;;;;;5104871;28;20143;-80
2022/04/07 08:06:54;;;;;;;7.93;1.75;;;7.50;99.90;;;;;;5109555;28;20044;-78
2022/04/07 08:09:20;;;;;;;18.33;2.70;;;7.80;99.90;;;;;;5105774;27;20051;-80
2022/04/07 08:11:45;;;;;;;7.97;1.00;;;7.90;99.90;;;;;;5107301;28;20039;-78
2022/04/07 08:14:11;;;;;;;6.88;1.42;;;7.90;99.90;;;;;;5104122;28;20096;-78
2022/04/07 08:16:38;;;;;;;4.78;1.13;;;7.90;99.90;;;;;;5112224;28;20039;-79
2022/04/07 08:19:05;;;;;;;9.25;2.38;;;8.00;99.90;;;;;;5104640;28;20084;-79
2022/04/07 08:21:31;;;;;;;7.28;1.13;;;8.20;99.90;;;;;;5091321;28;20050;-78
2022/04/07 08:23:56;;;;;;;9.27;1.85;;;8.30;99.90;;;;;;5089449;27;20080;-79
2022/04/07 08:26:22;;;;;;;10.52;1.40;;;8.30;99.90;;;;;;5095013;27;20043;-80
2022/04/07 08:28:48;;;;;;;7.60;1.52;;;8.40;99.90;;;;;;5107154;27;20473;-78
2022/04/07 08:31:13;;;;;;;4.45;1.33;;;8.50;99.90;;;;;;5106598;27;20510;-79
2022/04/07 08:33:39;;;;;;;3.08;1.17;;;8.50;99.90;;;;;;5113266;27;20043;-81
2022/04/07 08:36:05;;;;;;;6.00;1.42;;;8.60;99.90;;;;;;5112310;28;20044;-78
2022/04/07 08:38:30;;;;;;;9.35;3.33;;;8.70;99.90;;;;;;5098128;28;20112;-80
2022/04/07 08:40:56;;;;;;;7.75;1.85;;;8.80;99.90;;;;;;5104937;28;20036;-78
2022/04/07 08:43:23;;;;;;;7.13;1.85;;;8.90;99.90;;;;;;5090631;28;20084;-78
2022/04/07 08:45:49;;;;;;;8.32;2.08;;;8.90;99.90;;;;;;5090822;28;20097;-77
2022/04/07 08:48:15;;;;;;;15.73;3.25;;;9.10;99.90;;;;;;5106228;28;20096;-79
2022/04/07 08:50:42;;;;;;;11.02;2.85;;;8.90;99.90;;;;;;5105355;28;20040;-81
2022/04/07 08:53:08;;;;;;;9.95;2.08;;;9.00;99.90;;;;;;5102170;28;20039;-79
2022/04/07 08:55:34;;;;;;;9.48;1.75;;;9.20;99.90;;;;;;5111377;28;20104;-80
2022/04/07 08:58:00;;;;;;;7.22;1.50;;;9.40;99.90;;;;;;5103491;28;20506;-79
2022/04/07 09:00:26;;;;;;;9.35;1.52;;;8.90;99.90;;;;;;5094836;28;20043;-79
2022/04/07 09:02:53;;;;;;;4.60;1.48;;;9.20;99.90;;;;;;5090904;27;20372;-80
2022/04/07 09:05:24;;;;;;;10.77;2.15;;;9.30;99.90;;;;;;5105287;28;20039;-81
2022/04/07 09:07:54;;;;;;;7.22;1.92;;;9.40;99.90;;;;;;5105614;27;20114;-80
2022/04/07 09:10:22;;;;;;;10.93;1.83;;;9.50;99.90;;;;;;5110121;27;20104;-81
2022/04/07 09:12:49;;;;;;;5.28;1.45;;;9.80;99.90;;;;;;5098839;27;20097;-80
2022/04/07 09:15:15;;;;;;;8.32;2.10;;;9.90;99.90;;;;;;5071912;28;20047;-81
2022/04/07 09:17:55;;;;;;;12.43;4.60;;;9.70;99.90;;;;;;5092422;27;20043;-80
2022/04/07 09:20:22;;;;;;;8.90;1.90;;;9.50;99.90;;;;;;5109585;27;20490;-81
2022/04/07 09:22:56;;;;;;;12.50;2.78;;;9.30;99.90;;;;;;5094450;27;20090;-84
2022/04/07 09:25:22;;;;;;;10.63;2.13;;;9.40;99.90;;;;;;5096247;28;20047;-83
2022/04/07 09:27:50;;;;;;;12.90;2.38;;;9.80;99.90;;;;;;5101714;27;20050;-82
2022/04/07 09:30:16;;;;;;;13.68;2.00;;;9.90;99.90;;;;;;5109410;28;20051;-81
2022/04/07 09:32:43;;;;;;;14.20;2.20;;;10.30;99.90;;;;;;5090424;27;20277;-82
2022/04/07 09:35:11;;;;;;;6.97;1.30;;;10.10;99.90;;;;;;5105257;27;20047;-81
2022/04/07 09:37:39;;;;;;;7.68;1.95;;;10.20;99.90;;;;;;5096295;28;20124;-81
2022/04/07 09:40:14;;;;;;;15.95;3.13;;;9.90;99.90;;;;;;5110592;27;20039;-81
2022/04/07 09:42:43;;;;;;;12.40;2.80;;;9.70;99.90;;;;;;5098549;28;20048;-80
2022/04/07 09:45:14;;;;;;;15.55;3.22;;;9.60;99.90;;;;;;5090983;28;20050;-82
2022/04/07 09:47:45;;;;;;;16.15;2.90;;;9.60;99.90;;;;;;5107185;28;20451;-84
2022/04/07 09:50:32;;;;;;;13.88;3.33;;;9.30;99.90;;;;;;5111720;27;20051;-82
2022/04/07 09:52:58;;;;;;;9.75;1.77;;;9.70;99.90;;;;;;5092952;28;20136;-82
2022/04/07 09:55:30;;;;;;;8.25;2.20;;;10.00;99.90;;;;;;5104521;28;20047;-83
2022/04/07 09:57:56;;;;;;;13.35;2.22;;;10.10;99.90;;;;;;5096594;28;20039;-82
2022/04/07 10:00:24;;;;;;;7.47;2.17;;;10.00;99.90;;;;;;5096767;28;20100;-80
2022/04/07 10:02:50;;;;;;;12.63;2.58;;;10.00;99.90;;;;;;5089886;28;20483;-83
2022/04/07 10:05:16;;;;;;;6.10;2.08;;;9.90;99.90;;;;;;5122294;27;20176;-83
2022/04/07 10:07:42;;;;;;;14.90;2.50;;;9.70;99.90;;;;;;5095154;28;20509;-81
2022/04/07 10:10:08;;;;;;;12.15;1.98;;;9.70;99.90;;;;;;5100622;27;20141;-83
2022/04/07 10:12:34;;;;;;;12.52;2.72;;;9.80;99.90;;;;;;5107960;28;20067;-81
2022/04/07 10:15:02;;;;;;;16.13;3.63;;;9.50;99.90;;;;;;5109277;28;20040;-81
2022/04/07 10:17:28;;;;;;;22.52;4.47;;;9.40;99.90;;;;;;5100226;28;20141;-80
2022/04/07 10:20:05;;;;;;;10.43;2.13;;;9.40;99.90;;;;;;5091175;28;20075;-81
2022/04/07 10:22:48;;;;;;;10.48;2.40;;;9.30;99.90;;;;;;5099973;28;20493;-82
2022/04/07 10:25:16;;;;;;;11.85;2.78;;;9.30;99.90;;;;;;5106149;28;20051;-83
2022/04/07 10:27:57;;;;;;;16.60;3.15;;;9.30;99.90;;;;;;5110618;28;20074;-84
2022/04/07 10:30:23;;;;;;;16.45;2.70;;;9.30;99.90;;;;;;5099897;28;20035;-81
2022/04/07 10:32:52;;;;;;;19.70;4.32;;;9.20;99.90;;;;;;5124373;27;20045;-85
2022/04/07 10:35:30;;;;;;;9.85;3.42;;;9.00;99.90;;;;;;5113559;27;20405;-84
2022/04/07 10:38:01;;;;;;;17.23;3.30;;;8.90;99.90;;;;;;5108038;28;20054;-86
2022/04/07 10:40:46;;;;;;;18.52;3.42;;;9.00;99.90;;;;;;5108696;28;20498;-85
2022/04/07 10:43:21;;;;;;;15.65;3.45;;;8.80;99.90;;;;;;5145634;27;20068;-82
2022/04/07 10:46:05;;;;;;;17.05;4.20;;;8.80;99.90;;;;;;5147173;27;20047;-83
2022/04/07 10:48:36;;;;;;;34.05;5.03;;;8.80;99.90;;;;;;5124083;27;20125;-87
2022/04/07 10:51:09;;;;;;;17.10;3.95;;;9.00;99.90;;;;;;5090024;28;20050;-85
2022/04/07 10:54:00;;;;;;;14.63;3.33;;;9.10;99.90;;;;;;5110776;28;20052;-86
2022/04/07 10:56:39;;;;;;;15.35;3.38;;;9.10;99.90;;;;;;5102084;28;20045;-88
2022/04/07 10:59:27;;;;;;;12.85;2.90;;;9.00;99.90;;;;;;5101801;27;20031;-84
2022/04/07 11:02:13;;;;;;;14.75;4.07;;;9.10;99.90;;;;;;5101991;28;20401;-85
2022/04/07 11:05:04;;;;;;;14.07;2.75;;;9.30;99.90;;;;;;5107012;28;20059;-85
2022/04/07 11:07:50;;;;;;;13.75;2.95;;;9.70;99.90;;;;;;5090289;28;20055;-82
2022/04/07 11:10:16;;;;;;;41.03;4.93;;;9.80;99.90;;;;;;5105725;28;20036;-82
2022/04/07 11:12:44;;;;;;;23.27;5.13;;;10.00;99.90;;;;;;5089045;28;20062;-83
2022/04/07 11:15:15;;;;;;;22.60;6.10;;;10.20;99.90;;;;;;5104938;28;20067;-83
2022/04/07 11:17:41;;;;;;;20.92;3.42;;;10.00;99.90;;;;;;5097078;28;20052;-82
2022/04/07 11:20:25;;;;;;;12.15;3.13;;;9.50;99.90;;;;;;5088779;28;20047;-83
2022/04/07 11:23:09;;;;;;;15.57;3.90;;;9.60;99.90;;;;;;5086511;28;20098;-83
2022/04/07 11:25:39;;;;;;;10.80;2.80;;;9.60;99.90;;;;;;5094114;28;20422;-83
2022/04/07 11:28:19;;;;;;;13.88;3.70;;;9.90;99.90;;;;;;5107895;27;20119;-84
2022/04/07 11:30:49;;;;;;;;;;;9.90;99.90;;;;;;5108780;28;20031;-85
2022/04/07 11:33:26;;;;;;;18.60;2.42;;;9.90;99.90;;;;;;5107504;28;19920;-83
2022/04/07 11:36:03;;;;;;;18.67;3.72;;;9.80;99.90;;;;;;5096422;28;20701;-82
2022/04/07 11:38:29;;;;;;;11.18;3.65;;;9.80;99.90;;;;;;5101782;28;20146;-76
2022/04/07 11:41:02;;;;;;;17.77;4.38;;;9.70;99.90;;;;;;5114296;28;20083;-81
2022/04/07 11:43:28;;;;;;;11.65;3.38;;;9.90;99.90;;;;;;5103634;28;20112;-78
2022/04/07 11:45:55;;;;;;;13.27;3.35;;;9.80;99.90;;;;;;5113125;27;20039;-82
2022/04/07 11:48:21;;;;;;;14.85;3.10;;;9.90;99.90;;;;;;5099340;28;20062;-82
2022/04/07 11:50:46;;;;;;;10.07;1.95;;;10.20;99.90;;;;;;5108565;28;20052;-83
2022/04/07 11:53:12;;;;;;;14.27;2.97;;;10.40;99.90;;;;;;5104639;28;20477;-84
2022/04/07 11:55:38;;;;;;;16.48;3.17;;;10.30;99.90;;;;;;5108407;27;20039;-84
2022/04/07 11:58:03;;;;;;;9.63;2.70;;;10.20;99.90;;;;;;5113302;27;20050;-85
2022/04/07 12:00:31;;;;;;;9.32;2.60;;;10.50;99.90;;;;;;5105021;28;20075;-83
2022/04/07 12:03:00;;;;;;;15.68;3.88;;;10.50;99.90;;;;;;5101145;27;20118;-83
2022/04/07 12:05:27;;;;;;;13.30;4.25;;;10.60;99.90;;;;;;5101663;27;20465;-85
2022/04/07 12:07:54;;;;;;;19.17;3.58;;;10.70;99.90;;;;;;5100696;27;20408;-84
2022/04/07 12:10:20;;;;;;;12.23;3.15;;;10.50;99.90;;;;;;5099280;28;20063;-84
2022/04/07 12:12:46;;;;;;;13.80;3.20;;;10.10;99.90;;;;;;5100588;28;20128;-84
2022/04/07 12:15:15;;;;;;;15.35;3.28;;;9.80;99.90;;;;;;5107454;28;20039;-85
2022/04/07 12:18:04;;;;;;;16.17;2.30;;;9.70;99.90;;;;;;5097918;28;20461;-83
2022/04/07 12:20:30;;;;;;;7.53;1.52;;;9.40;99.90;;;;;;5120069;27;20035;-82
2022/04/07 12:23:09;;;;;;;7.38;2.60;;;7.90;99.90;;;;;;5091494;27;20043;-84
2022/04/07 12:25:39;;;;;;;7.75;2.22;;;7.60;99.90;;;;;;5095962;28;20060;-82
2022/04/07 12:28:14;;;;;;;10.43;1.45;;;7.80;99.90;;;;;;5100522;27;20040;-82
2022/04/07 12:30:44;;;;;;;5.72;1.73;;;8.20;99.90;;;;;;5092713;28;20048;-82
2022/04/07 12:33:10;;;;;;;;;;;8.70;99.90;;;;;;5112470;27;20043;-84
2022/04/07 12:35:47;;;;;;;23.48;3.47;;;9.30;99.90;;;;;;5106121;28;19920;-83
2022/04/07 12:38:13;;;;;;;11.85;3.20;;;9.70;99.90;;;;;;5104987;28;20051;-84
2022/04/07 12:40:39;;;;;;;17.08;3.42;;;9.30;99.90;;;;;;5100439;27;20035;-77
2022/04/07 12:43:05;;;;;;;5.85;1.60;;;8.80;99.90;;;;;;5092768;28;20116;-83
2022/04/07 12:45:31;;;;;;;5.53;1.45;;;8.20;99.90;;;;;;5107548;28;20081;-84
2022/04/07 12:48:05;;;;;;;10.07;2.92;;;7.80;99.90;;;;;;5088998;28;20032;-84
2022/04/07 12:50:33;;;;;;;5.93;1.58;;;7.40;99.90;;;;;;5107850;28;20096;-83
2022/04/07 12:52:59;;;;;;;4.70;1.38;;;7.40;99.90;;;;;;5083396;27;20422;-84